Time;durP1;ratioP1;P1;durP2;ratioP2;P2;SDS_P1;SDS_P2;PMS_P1;PMS_P2;Temp;Humidity;BMP_temperature;BMP_pressure;BME280_temperature;BME280_humidity;BME280_pressure;Samples;Min_cycle;Max_cycle;Signal;HPM_P1;HPM_P2
2021/04/16 00:00:51;;;;;;;8.00;4.95;;;;;;;7.96;56.08;100827.78;5069574;28;20029;-72
2021/04/16 00:03:17;;;;;;;10.52;5.72;;;;;;;7.93;56.39;100823.34;5070591;28;20028;-73
2021/04/16 00:05:43;;;;;;;27.67;9.68;;;;;;;7.99;56.24;100833.06;5068699;28;20027;-72
2021/04/16 00:08:14;;;;;;;14.88;6.75;;;;;;;7.87;56.42;100829.03;5071286;28;20020;-74
2021/04/16 00:10:44;;;;;;;8.00;5.57;;;;;;;7.52;56.72;100820.31;5070688;28;20044;-74
2021/04/16 00:13:12;;;;;;;11.38;5.88;;;;;;;7.19;57.35;100767.97;5072186;28;20024;-74
2021/04/16 00:15:40;;;;;;;9.63;5.10;;;;;;;7.35;57.88;100832.25;5054162;28;20486;-74
2021/04/16 00:18:11;;;;;;;7.35;4.80;;;;;;;7.23;57.50;100837.56;5070022;28;20028;-72
2021/04/16 00:20:37;;;;;;;8.73;5.47;;;;;;;7.07;58.82;100822.09;5070056;28;20914;-72
2021/04/16 00:23:04;;;;;;;14.32;6.90;;;;;;;7.46;57.92;100832.81;5068797;28;20028;-73
2021/04/16 00:25:32;;;;;;;7.43;4.60;;;;;;;7.16;57.23;100819.16;5054163;28;20453;-72
2021/04/16 00:27:58;;;;;;;7.18;4.40;;;;;;;6.92;57.76;100781.91;5072869;28;20032;-72
2021/04/16 00:30:33;;;;;;;35.30;13.77;;;;;;;7.38;58.49;100834.09;5068042;28;20024;-74
2021/04/16 00:32:58;;;;;;;10.43;6.90;;;;;;;7.26;57.78;100822.34;5069513;28;20470;-71
2021/04/16 00:35:24;;;;;;;8.63;4.80;;;;;;;7.09;58.32;100831.66;5069205;28;20024;-73
2021/04/16 00:37:50;;;;;;;8.45;4.90;;;;;;;7.22;58.04;100825.53;5071115;28;20028;-73
2021/04/16 00:40:23;;;;;;;7.63;5.25;;;;;;;7.46;57.99;100830.25;5071284;28;20104;-72
2021/04/16 00:42:54;;;;;;;8.30;5.18;;;;;;;7.36;57.15;100780.06;5072148;28;20390;-72
2021/04/16 00:45:21;;;;;;;7.53;4.88;;;;;;;7.56;57.84;100835.13;5066975;28;22056;-73
2021/04/16 00:47:46;;;;;;;8.57;4.55;;;;;;;7.54;57.57;100823.84;5070180;28;20032;-72
2021/04/16 00:50:18;;;;;;;7.45;4.97;;;;;;;7.38;57.96;100769.88;5069943;28;20079;-72
2021/04/16 00:52:44;;;;;;;6.70;4.85;;;;;;;7.34;56.76;100784.25;5066085;28;20028;-73
2021/04/16 00:55:10;;;;;;;7.93;5.28;;;;;;;7.67;57.75;100845.09;5071413;28;20085;-74
2021/04/16 00:57:36;;;;;;;7.38;5.20;;;;;;;7.18;57.43;100830.38;5071061;28;20028;-75
2021/04/16 01:00:05;;;;;;;9.55;5.10;;;;;;;6.82;58.13;100842.88;5071304;28;20031;-72
2021/04/16 01:02:30;;;;;;;6.75;4.72;;;;;;;6.79;57.71;100834.22;5066654;28;20049;-72
2021/04/16 01:04:56;;;;;;;8.05;4.90;;;;;;;6.84;57.50;100820.78;5069872;28;20062;-74
2021/04/16 01:07:22;;;;;;;7.10;4.82;;;;;;;6.60;57.15;100834.84;5068187;28;20047;-71
2021/04/16 01:09:49;;;;;;;8.27;5.43;;;;;;;6.59;58.25;100835.63;5070486;28;20411;-75
2021/04/16 01:12:15;;;;;;;7.35;4.95;;;;;;;6.74;57.96;100843.34;5070469;28;20020;-75
2021/04/16 01:14:45;;;;;;;7.05;4.53;;;;;;;6.06;56.73;100772.66;5070752;28;20064;-73
2021/04/16 01:17:13;;;;;;;7.60;5.50;;;;;;;6.21;57.81;100844.47;5071454;28;20538;-71
2021/04/16 01:20:06;;;;;;;6.43;4.35;;;;;;;6.18;58.15;100857.13;5066459;28;20036;-71
2021/04/16 01:22:36;;;;;;;46.53;19.27;;;;;;;6.07;59.17;100853.00;5068503;28;20024;-74
2021/04/16 01:25:05;;;;;;;18.27;8.05;;;;;;;6.08;58.99;100854.78;5070199;28;20047;-71
2021/04/16 01:27:31;;;;;;;11.57;5.88;;;;;;;5.70;59.56;100850.72;5071654;28;20082;-72
2021/04/16 01:30:08;;;;;;;7.82;5.55;;;;;;;5.61;59.35;100841.66;5066581;28;20021;-74
2021/04/16 01:32:35;;;;;;;9.27;5.43;;;;;;;5.72;60.30;100854.22;5069864;28;20016;-73
2021/04/16 01:35:02;;;;;;;8.73;5.25;;;;;;;5.65;59.13;100832.47;5067836;28;20103;-75
2021/04/16 01:37:28;;;;;;;7.30;5.25;;;;;;;5.66;59.42;100854.75;5070020;28;20025;-75
2021/04/16 01:39:54;;;;;;;7.55;4.68;;;;;;;5.35;60.60;100863.91;5070414;28;20482;-74
2021/04/16 01:42:21;;;;;;;7.53;5.40;;;;;;;4.90;61.55;100773.16;5070645;28;20020;-72
2021/04/16 01:44:47;;;;;;;10.38;6.03;;;;;;;5.25;61.78;100820.59;5071082;28;20024;-73
2021/04/16 01:47:15;;;;;;;7.55;5.20;;;;;;;5.33;61.36;100857.84;5066579;28;20162;-71
2021/04/16 01:49:48;;;;;;;9.13;5.30;;;;;;;5.24;61.12;100853.78;5066693;28;20040;-71
2021/04/16 01:52:30;;;;;;;7.13;5.13;;;;;;;5.06;61.74;100850.91;5067536;28;20035;-72
2021/04/16 01:54:57;;;;;;;9.77;6.67;;;;;;;5.17;61.95;100853.38;5069791;28;20029;-72
2021/04/16 01:57:34;;;;;;;10.13;5.50;;;;;;;4.87;62.60;100808.75;5065898;28;20091;-72
2021/04/16 02:00:00;;;;;;;8.10;5.27;;;;;;;5.12;61.89;100823.16;5068913;28;20023;-72
2021/04/16 02:02:29;;;;;;;8.00;5.97;;;;;;;5.45;62.18;100854.28;5067295;28;20029;-73
2021/04/16 02:04:55;;;;;;;8.60;5.77;;;;;;;5.48;61.61;100828.84;5068990;28;20082;-72
2021/04/16 02:07:22;;;;;;;10.67;6.57;;;;;;;5.66;61.83;100855.63;5068965;28;20032;-73
2021/04/16 02:09:47;;;;;;;11.80;6.73;;;;;;;5.71;62.00;100857.59;5070109;28;20146;-72
2021/04/16 02:12:15;;;;;;;11.50;6.03;;;;;;;5.73;62.44;100861.13;5070395;28;20418;-74
2021/04/16 02:14:41;;;;;;;9.30;6.45;;;;;;;5.97;61.51;100861.78;5065783;28;20023;-72
2021/04/16 02:17:14;;;;;;;48.03;17.70;;;;;;;6.17;61.11;100859.56;5067876;28;20025;-73
2021/04/16 02:19:41;;;;;;;337.05;96.72;;;;;;;6.30;60.70;100862.09;5066931;28;20033;-73
2021/04/16 02:22:13;;;;;;;15.32;8.25;;;;;;;6.39;60.20;100857.53;5051750;28;20406;-72
2021/04/16 02:24:39;;;;;;;147.63;45.25;;;;;;;6.41;59.45;100842.25;5050681;28;20036;-72
2021/04/16 02:27:05;;;;;;;97.78;32.65;;;;;;;6.70;59.11;100855.91;5066950;28;20028;-73
2021/04/16 02:29:30;;;;;;;24.42;10.55;;;;;;;6.85;58.63;100877.31;5068570;28;20024;-73
2021/04/16 02:31:56;;;;;;;10.80;7.10;;;;;;;6.73;59.15;100861.19;5067472;28;20027;-73
2021/04/16 02:34:27;;;;;;;10.65;6.57;;;;;;;6.28;60.76;100862.00;5069535;28;20063;-72
2021/04/16 02:36:54;;;;;;;9.68;6.07;;;;;;;6.37;60.56;100879.63;5069058;28;20025;-72
2021/04/16 02:39:20;;;;;;;9.60;5.75;;;;;;;6.17;59.78;100829.72;5070182;28;20028;-74
2021/04/16 02:41:46;;;;;;;9.60;5.80;;;;;;;6.30;59.88;100873.22;5066505;28;20020;-73
2021/04/16 02:44:12;;;;;;;7.57;5.40;;;;;;;6.31;60.06;100869.88;5067111;28;20032;-72
2021/04/16 02:46:38;;;;;;;9.30;6.10;;;;;;;6.27;60.39;100861.94;5068521;28;20035;-73
2021/04/16 02:49:05;;;;;;;7.60;6.00;;;;;;;6.09;59.96;100821.56;5067663;28;20022;-71
2021/04/16 02:51:30;;;;;;;9.85;5.57;;;;;;;6.25;60.03;100868.63;5069136;28;20024;-72
2021/04/16 02:53:56;;;;;;;8.55;5.72;;;;;;;6.24;60.52;100888.28;5069005;28;20494;-72
2021/04/16 02:56:23;;;;;;;9.18;5.72;;;;;;;6.35;60.33;100882.91;5069835;28;20493;-75
2021/04/16 02:58:49;;;;;;;8.30;5.50;;;;;;;6.34;60.06;100886.25;5065272;28;20032;-73
2021/04/16 03:01:14;;;;;;;8.70;5.75;;;;;;;6.42;59.63;100873.09;5064890;28;20025;-72
2021/04/16 03:03:40;;;;;;;20.63;18.75;;;;;;;6.51;59.77;100883.03;5050446;28;20505;-72
2021/04/16 03:06:06;;;;;;;9.50;5.85;;;;;;;6.15;60.11;100852.69;5067522;28;20025;-73
2021/04/16 03:08:33;;;;;;;7.50;5.53;;;;;;;5.84;60.32;100816.56;5068822;28;20534;-74
2021/04/16 03:10:59;;;;;;;9.20;5.85;;;;;;;5.46;61.75;100850.94;5069304;28;20490;-73
2021/04/16 03:13:24;;;;;;;9.73;6.22;;;;;;;5.39;62.17;100834.28;5066337;28;20021;-72
2021/04/16 03:15:50;;;;;;;8.77;5.90;;;;;;;5.64;62.73;100887.94;5065066;28;20040;-72
2021/04/16 03:18:17;;;;;;;9.85;5.72;;;;;;;5.27;64.15;100902.63;5067563;28;20111;-72
2021/04/16 03:20:44;;;;;;;8.55;5.85;;;;;;;4.56;66.29;100903.94;5067828;28;20490;-72
2021/04/16 03:23:10;;;;;;;8.10;5.63;;;;;;;4.62;67.44;100906.91;5049585;28;20039;-73
2021/04/16 03:25:36;;;;;;;8.63;6.20;;;;;;;4.51;68.23;100902.72;5059768;28;20025;-73
2021/04/16 03:28:02;;;;;;;10.20;5.70;;;;;;;4.31;68.52;100886.91;5071152;28;20035;-74
2021/04/16 03:30:28;;;;;;;14.10;7.77;;;;;;;4.34;69.11;100916.91;5070956;28;20028;-73
2021/04/16 03:32:54;;;;;;;30.77;12.30;;;;;;;4.01;69.61;100881.47;5071081;28;20028;-73
2021/04/16 03:35:22;;;;;;;9.23;6.67;;;;;;;4.45;68.87;100930.41;5070839;28;20033;-73
2021/04/16 03:37:48;;;;;;;9.17;6.27;;;;;;;4.53;68.84;100942.06;5070941;28;20449;-75
2021/04/16 03:40:19;;;;;;;10.23;7.40;;;;;;;4.24;68.55;100901.69;5070790;28;20040;-74
2021/04/16 03:42:45;;;;;;;8.77;6.40;;;;;;;3.99;68.83;100894.91;5070573;28;20037;-73
2021/04/16 03:45:14;;;;;;;9.60;6.57;;;;;;;4.10;70.13;100936.50;5070777;28;20051;-73
2021/04/16 03:47:42;;;;;;;8.43;6.00;;;;;;;4.38;68.95;100944.44;5066440;28;20052;-78
2021/04/16 03:50:08;;;;;;;8.37;5.77;;;;;;;4.29;68.30;100929.38;5030653;28;20040;-73
2021/04/16 03:52:33;;;;;;;9.77;6.17;;;;;;;4.45;68.26;100927.84;5030870;28;20017;-77
2021/04/16 03:54:59;;;;;;;11.30;6.17;;;;;;;4.57;68.31;100955.94;5030581;28;20407;-74
2021/04/16 03:57:24;;;;;;;8.90;6.67;;;;;;;4.70;68.17;100954.34;5040900;28;20029;-72
2021/04/16 03:59:53;;;;;;;9.70;6.20;;;;;;;4.80;67.25;100947.31;5029823;28;20080;-72
2021/04/16 04:02:18;;;;;;;12.33;6.77;;;;;;;4.81;66.85;100949.97;5050360;28;20033;-74
2021/04/16 04:04:44;;;;;;;12.00;7.53;;;;;;;4.89;66.63;100963.25;5056645;28;20121;-73
2021/04/16 04:07:09;;;;;;;10.70;7.27;;;;;;;4.72;66.71;100935.66;5070569;28;20040;-73
2021/04/16 04:09:36;;;;;;;9.40;6.57;;;;;;;4.47;67.61;100919.50;5061983;28;20048;-73
2021/04/16 04:12:03;;;;;;;8.47;6.33;;;;;;;4.27;69.46;100974.38;5050546;28;20029;-74
2021/04/16 04:14:28;;;;;;;15.40;7.53;;;;;;;4.17;70.37;100967.72;5032554;28;20503;-73
2021/04/16 04:17:00;;;;;;;9.37;6.60;;;;;;;4.23;70.97;100971.50;5052000;28;20051;-73
2021/04/16 04:19:28;;;;;;;9.90;7.27;;;;;;;4.41;70.29;100977.91;5054126;28;20029;-73
2021/04/16 04:21:55;;;;;;;10.83;7.23;;;;;;;4.13;69.83;100964.84;5053875;28;20027;-73
2021/04/16 04:24:21;;;;;;;11.23;7.60;;;;;;;4.33;69.60;100973.91;5036084;28;20024;-73
2021/04/16 04:26:47;;;;;;;14.73;7.83;;;;;;;4.41;68.33;100971.91;5053837;28;20518;-73
2021/04/16 04:29:14;;;;;;;9.83;6.40;;;;;;;4.21;68.65;100968.81;5054125;28;20036;-72
2021/04/16 04:31:47;;;;;;;9.80;6.13;;;;;;;4.31;68.66;100971.28;5059861;28;20035;-73
2021/04/16 04:34:19;;;;;;;9.90;6.27;;;;;;;4.36;67.83;100976.69;5073929;28;20491;-73
2021/04/16 04:36:44;;;;;;;8.60;6.53;;;;;;;4.17;68.33;100977.06;5073621;28;20032;-73
2021/04/16 04:39:12;;;;;;;10.47;6.60;;;;;;;4.26;68.01;100979.38;5073811;28;20017;-73
2021/04/16 04:41:38;;;;;;;9.47;6.53;;;;;;;4.30;68.36;100984.81;5063210;28;20025;-73
2021/04/16 04:44:03;;;;;;;10.10;6.30;;;;;;;4.34;67.88;100968.91;5053568;28;20037;-73
2021/04/16 04:46:29;;;;;;;12.23;6.73;;;;;;;4.51;67.21;100975.22;5053841;28;20047;-73
2021/04/16 04:48:54;;;;;;;10.53;6.70;;;;;;;4.68;67.48;100999.38;5035886;28;20033;-73
2021/04/16 04:51:20;;;;;;;10.93;7.10;;;;;;;4.86;67.32;100989.53;5053733;28;20403;-74
2021/04/16 04:53:46;;;;;;;12.20;8.93;;;;;;;4.82;66.65;100932.94;5053626;28;20108;-74
2021/04/16 04:56:11;;;;;;;13.23;10.07;;;;;;;5.40;65.41;100988.81;5053629;28;20033;-74
2021/04/16 04:58:36;;;;;;;14.90;9.13;;;;;;;5.65;64.28;100991.31;5035795;28;20414;-76
2021/04/16 05:01:02;;;;;;;13.15;7.95;;;;;;;5.53;64.22;100975.13;5053526;28;20060;-74
2021/04/16 05:03:27;;;;;;;11.83;7.87;;;;;;;5.69;63.43;101000.06;5034294;28;20087;-74
2021/04/16 05:05:53;;;;;;;17.67;8.35;;;;;;;5.43;62.83;100951.50;5046496;28;20479;-77
2021/04/16 05:08:18;;;;;;;10.52;7.32;;;;;;;5.55;62.74;100997.50;5033540;28;20025;-73
2021/04/16 05:10:44;;;;;;;10.70;7.70;;;;;;;5.36;62.88;100985.16;5032981;28;20109;-75
2021/04/16 05:13:10;;;;;;;10.10;7.15;;;;;;;5.30;63.63;101002.66;5015544;28;20026;-74
2021/04/16 05:15:35;;;;;;;9.98;7.30;;;;;;;5.27;63.26;101005.91;5032858;28;20036;-74
2021/04/16 05:18:01;;;;;;;12.90;7.50;;;;;;;5.37;63.26;100998.84;5032956;28;20030;-74
2021/04/16 05:20:26;;;;;;;11.10;7.35;;;;;;;5.34;62.35;100991.84;5014926;28;20033;-74
2021/04/16 05:22:52;;;;;;;48.95;19.85;;;;;;;5.59;62.96;100999.47;5032995;28;20145;-73
2021/04/16 05:25:17;;;;;;;12.05;8.45;;;;;;;5.87;62.21;101003.84;5032928;28;20025;-74
2021/04/16 05:27:43;;;;;;;10.63;7.70;;;;;;;5.97;61.24;101005.31;5034772;28;20029;-75
2021/04/16 05:30:09;;;;;;;16.23;9.13;;;;;;;6.01;61.69;100999.63;5034484;28;20095;-73
2021/04/16 05:32:35;;;;;;;13.90;7.70;;;;;;;6.06;63.28;100992.22;4997825;28;20038;-73
2021/04/16 05:35:00;;;;;;;9.38;7.25;;;;;;;6.16;60.18;101002.28;5049663;28;20037;-74
2021/04/16 05:37:26;;;;;;;11.80;7.10;;;;;;;6.12;60.56;100990.94;5041805;28;20404;-74
2021/04/16 05:39:51;;;;;;;10.35;7.65;;;;;;;6.31;61.30;100995.53;5043011;28;20032;-72
2021/04/16 05:42:20;;;;;;;9.02;6.93;;;;;;;6.25;59.46;100982.31;5059645;28;20100;-73
2021/04/16 05:44:46;;;;;;;8.07;6.30;;;;;;;6.28;59.22;100991.88;5058746;28;20027;-74
2021/04/16 05:47:12;;;;;;;11.55;7.05;;;;;;;6.15;59.95;100979.97;5061991;28;20417;-73
2021/04/16 05:49:38;;;;;;;10.52;7.60;;;;;;;6.41;60.90;100994.44;5066116;28;20546;-73
2021/04/16 05:52:04;;;;;;;13.45;6.78;;;;;;;6.52;59.41;100997.66;5063608;28;20099;-72
2021/04/16 05:54:29;;;;;;;9.68;7.18;;;;;;;6.46;58.86;100994.72;5040231;28;20036;-72
2021/04/16 05:56:54;;;;;;;9.07;6.88;;;;;;;6.61;59.56;100989.66;5039121;28;20459;-73
2021/04/16 05:59:20;;;;;;;11.10;6.70;;;;;;;6.62;57.93;100991.44;5070901;28;20031;-73
2021/04/16 06:01:46;;;;;;;8.18;6.28;;;;;;;6.22;57.76;100878.69;5059297;28;20446;-76
2021/04/16 06:04:23;;;;;;;9.93;7.10;;;;;;;6.94;57.80;100982.19;5063945;28;20033;-75
2021/04/16 06:06:49;;;;;;;8.73;6.60;;;;;;;6.60;56.22;100918.59;5059214;28;20497;-74
2021/04/16 06:09:15;;;;;;;8.38;6.60;;;;;;;6.78;56.90;100936.81;5051482;28;20048;-72
2021/04/16 06:11:40;;;;;;;11.63;6.63;;;;;;;7.17;55.89;100983.59;5052081;28;20622;-74
2021/04/16 06:14:07;;;;;;;8.57;5.60;;;;;;;7.09;54.72;100978.00;5049858;28;20103;-75
2021/04/16 06:16:34;;;;;;;7.55;5.30;;;;;;;7.26;54.21;100979.00;5051916;28;20120;-73
2021/04/16 06:19:00;;;;;;;10.48;6.07;;;;;;;6.77;54.87;100888.84;5052115;28;20029;-73
2021/04/16 06:21:26;;;;;;;9.15;6.55;;;;;;;7.30;55.19;100972.34;5031879;28;20039;-73
2021/04/16 06:23:51;;;;;;;9.40;6.35;;;;;;;7.46;55.14;100984.38;5051043;28;20407;-73
2021/04/16 06:26:17;;;;;;;15.82;7.15;;;;;;;7.64;54.86;100973.38;5049978;28;20037;-75
2021/04/16 06:28:46;;;;;;;7.28;4.88;;;;;;;7.75;52.88;100978.34;5051212;28;20032;-74
2021/04/16 06:31:21;;;;;;;8.77;5.88;;;;;;;7.58;53.19;100974.81;5018947;28;20483;-73
2021/04/16 06:33:47;;;;;;;8.75;5.80;;;;;;;7.76;54.46;100963.81;5009258;28;20070;-74
2021/04/16 06:36:18;;;;;;;9.88;5.38;;;;;;;8.01;51.56;100976.38;5009818;28;20037;-75
2021/04/16 06:38:45;;;;;;;7.82;5.18;;;;;;;7.95;51.56;100963.16;5009799;28;20038;-75
2021/04/16 06:41:32;;;;;;;19.30;11.68;;;;;;;8.17;53.68;100972.94;5009086;28;20045;-74
2021/04/16 06:44:11;;;;;;;9.20;5.28;;;;;;;8.23;52.29;100977.53;5014647;28;20553;-73
2021/04/16 06:46:39;;;;;;;5.90;4.77;;;;;;;8.14;50.73;100931.63;5029423;28;20033;-73
2021/04/16 06:49:14;;;;;;;9.95;6.20;;;;;;;8.36;50.01;100922.47;5029793;28;20036;-73
2021/04/16 06:51:51;;;;;;;6.97;4.72;;;;;;;8.77;50.38;100980.41;5029017;28;20042;-73
2021/04/16 06:54:24;;;;;;;6.78;5.20;;;;;;;8.84;50.08;100979.06;5029263;28;20375;-73
2021/04/16 06:56:52;;;;;;;7.03;4.20;;;;;;;8.46;50.50;100976.25;5029486;28;20033;-73
2021/04/16 06:59:25;;;;;;;7.43;4.50;;;;;;;8.66;49.94;100972.16;5012735;28;20071;-73
2021/04/16 07:02:08;;;;;;;7.72;4.75;;;;;;;8.79;49.56;100985.69;5012551;28;20072;-73
2021/04/16 07:04:53;;;;;;;8.30;4.95;;;;;;;9.11;48.65;100971.88;5029221;28;20497;-74
2021/04/16 07:07:26;;;;;;;7.93;4.47;;;;;;;9.31;47.92;100979.72;5029221;28;20037;-73
2021/04/16 07:10:17;;;;;;;8.68;3.90;;;;;;;9.20;48.65;100980.06;5029089;28;20586;-75
2021/04/16 07:12:43;;;;;;;8.18;5.35;;;;;;;9.31;47.82;100974.56;5028962;28;20064;-72
2021/04/16 07:15:23;;;;;;;6.75;4.05;;;;;;;9.42;48.30;100962.22;5029350;28;20048;-73
2021/04/16 07:17:49;;;;;;;39.35;14.48;;;;;;;9.54;49.51;100978.28;4964099;28;20041;-73
2021/04/16 07:20:21;;;;;;;5.38;4.00;;;;;;;9.10;48.59;100926.31;5029174;28;20041;-72
2021/04/16 07:22:49;;;;;;;8.48;4.30;;;;;;;9.28;49.33;100967.56;5029156;28;20038;-72
2021/04/16 07:25:40;;;;;;;6.65;4.05;;;;;;;9.24;47.68;100975.97;5029101;28;20033;-73
2021/04/16 07:28:33;;;;;;;6.28;3.92;;;;;;;9.32;47.46;100976.34;5029140;28;20041;-73
2021/04/16 07:31:25;;;;;;;21.60;9.43;;;;;;;9.71;47.43;100989.44;5058129;28;20041;-73
2021/04/16 07:33:52;;;;;;;8.23;5.35;;;;;;;10.13;46.67;100979.41;5070924;28;20033;-72
2021/04/16 07:36:30;;;;;;;8.40;4.88;;;;;;;10.47;45.10;100980.13;5070933;28;20020;-72
2021/04/16 07:39:04;;;;;;;6.75;4.22;;;;;;;10.59;44.49;100977.19;5071178;28;20407;-72
2021/04/16 07:41:34;;;;;;;5.60;4.18;;;;;;;10.80;43.99;100970.44;5070935;28;20032;-73
2021/04/16 07:44:01;;;;;;;;;;;;;;;10.77;44.32;100974.56;5053448;28;20024;-72
2021/04/16 07:46:26;;;;;;;7.38;3.83;;;;;;;10.52;45.04;100976.06;5070847;28;19913;-73
2021/04/16 07:48:54;;;;;;;6.13;3.97;;;;;;;10.84;43.51;100974.91;5070985;28;20051;-73
2021/04/16 07:51:31;;;;;;;14.75;5.82;;;;;;;10.54;45.16;100978.69;5070864;28;20064;-73
2021/04/16 07:54:16;;;;;;;6.82;4.15;;;;;;;10.36;46.63;100959.84;5075244;28;20021;-72
2021/04/16 07:56:43;;;;;;;5.53;3.65;;;;;;;10.69;44.65;100966.47;5060624;28;20068;-73
2021/04/16 07:59:13;;;;;;;6.10;3.75;;;;;;;10.83;43.49;100924.06;5053469;28;20489;-75
2021/04/16 08:01:45;;;;;;;5.85;4.03;;;;;;;11.28;42.74;100971.59;5053325;28;20040;-72
2021/04/16 08:04:31;;;;;;;6.65;3.55;;;;;;;11.48;41.87;100969.81;5034491;28;20029;-73
2021/04/16 08:07:16;;;;;;;5.32;3.70;;;;;;;11.55;41.75;100965.78;5016727;28;20138;-72
2021/04/16 08:09:42;;;;;;;5.45;3.90;;;;;;;11.62;41.88;100972.97;5045987;28;20045;-73
2021/04/16 08:12:07;;;;;;;5.88;3.88;;;;;;;11.16;41.79;100967.66;5051913;28;20095;-73
2021/04/16 08:14:36;;;;;;;9.95;4.35;;;;;;;11.44;42.25;100961.06;5052140;28;20498;-73
2021/04/16 08:17:05;;;;;;;6.38;3.80;;;;;;;11.55;40.49;100964.09;5054181;28;20060;-73
2021/04/16 08:19:38;;;;;;;6.68;3.58;;;;;;;11.68;40.77;100957.69;5034026;28;20025;-74
2021/04/16 08:22:09;;;;;;;6.38;3.97;;;;;;;11.71;41.47;100964.69;5051891;28;20037;-72
2021/04/16 08:24:58;;;;;;;8.13;3.90;;;;;;;11.39;40.75;100910.88;5045696;28;20390;-73
2021/04/16 08:27:33;;;;;;;10.63;4.22;;;;;;;11.86;41.72;100974.78;5036113;28;20100;-71
2021/04/16 08:30:04;;;;;;;5.88;3.60;;;;;;;12.00;37.29;100958.13;5053206;28;20036;-72
2021/04/16 08:32:38;;;;;;;5.43;3.30;;;;;;;11.98;37.57;100962.34;5050499;28;20028;-73
2021/04/16 08:35:18;;;;;;;7.93;4.32;;;;;;;12.09;40.90;100948.13;5054054;28;20549;-73
2021/04/16 08:37:48;;;;;;;6.28;4.03;;;;;;;11.88;41.80;100903.28;5044052;28;20073;-73
2021/04/16 08:40:22;;;;;;;7.07;4.15;;;;;;;12.20;38.96;100952.81;5055017;28;20071;-73
2021/04/16 08:42:49;;;;;;;10.75;3.90;;;;;;;12.06;38.73;100911.78;5063884;28;20064;-74
2021/04/16 08:45:22;;;;;;;7.00;3.70;;;;;;;11.88;39.49;100963.66;5063106;28;20070;-73
2021/04/16 08:48:00;;;;;;;10.10;6.13;;;;;;;11.85;40.34;100935.09;5007915;28;20520;-75
2021/04/16 08:50:31;;;;;;;7.25;5.05;;;;;;;11.97;39.68;100963.19;5062371;28;20044;-73
2021/04/16 08:53:00;;;;;;;4.45;3.65;;;;;;;12.22;38.50;100959.81;5064662;28;20031;-75
2021/04/16 08:55:37;;;;;;;6.28;4.03;;;;;;;12.25;37.68;100922.81;5067661;28;20037;-75
2021/04/16 08:58:15;;;;;;;5.25;3.85;;;;;;;12.12;38.50;100948.25;5041393;28;20025;-73
2021/04/16 09:00:49;;;;;;;5.13;3.80;;;;;;;11.43;39.28;100891.19;5044214;28;20036;-72
2021/04/16 09:03:21;;;;;;;22.40;8.60;;;;;;;11.87;38.49;100945.50;5052052;28;20078;-73
2021/04/16 09:05:58;;;;;;;8.35;4.05;;;;;;;12.28;37.47;100948.81;5053343;28;20041;-74
2021/04/16 09:11:46;;;;;;;6.72;3.83;;;;;;;11.70;38.32;100883.66;5070665;22;20064;-72
2021/04/16 09:14:34;;;;;;;5.13;3.20;;;;;;;11.98;37.49;100941.66;5033210;28;20034;-75
2021/04/16 09:17:04;;;;;;;4.78;3.10;;;;;;;12.32;36.56;100950.69;5032165;28;20109;-73
2021/04/16 09:19:29;;;;;;;5.95;3.38;;;;;;;12.12;36.07;100949.94;5032967;28;20037;-73
2021/04/16 09:22:04;;;;;;;6.57;3.40;;;;;;;11.91;36.46;100917.22;5033217;28;20032;-73
2021/04/16 09:24:41;;;;;;;5.40;2.92;;;;;;;11.78;36.28;100894.28;5033268;28;20083;-72
2021/04/16 09:27:44;;;;;;;7.43;4.47;;;;;;;11.91;37.39;100934.44;5033185;28;20031;-72
2021/04/16 09:30:13;;;;;;;6.40;3.65;;;;;;;11.71;37.84;100879.34;4991063;28;20669;-72
2021/04/16 09:32:47;;;;;;;5.65;3.08;;;;;;;12.34;40.83;100917.13;4955649;28;20473;-73
2021/04/16 09:35:39;;;;;;;5.18;3.38;;;;;;;12.59;36.49;100903.34;4972209;28;20046;-73
2021/04/16 09:38:23;;;;;;;5.05;3.35;;;;;;;12.94;35.75;100885.56;4905744;29;20218;-73
2021/04/16 09:41:07;;;;;;;6.68;3.70;;;;;;;13.29;34.82;100887.56;4914102;29;20043;-73
2021/04/16 09:43:33;;;;;;;6.32;3.83;;;;;;;13.39;34.13;100890.50;4914343;29;20047;-75
2021/04/16 09:45:59;;;;;;;5.43;3.53;;;;;;;13.57;34.42;100887.66;4914331;29;20596;-75
2021/04/16 09:48:46;;;;;;;5.45;3.42;;;;;;;13.63;33.09;100883.47;4945898;29;20142;-72
2021/04/16 09:51:34;;;;;;;5.30;3.20;;;;;;;13.13;35.14;100814.47;4914107;29;20507;-72
2021/04/16 09:54:09;;;;;;;7.22;3.35;;;;;;;13.29;33.60;100872.00;4914265;29;20098;-72
2021/04/16 09:56:57;;;;;;;4.60;3.13;;;;;;;13.54;33.07;100866.78;4914154;29;20036;-74
2021/04/16 09:59:35;;;;;;;4.70;3.28;;;;;;;13.52;33.44;100864.97;4912843;29;20117;-75
2021/04/16 10:02:13;;;;;;;7.95;3.50;;;;;;;13.62;34.17;100856.66;4913782;29;20171;-75
2021/04/16 10:04:50;;;;;;;4.47;3.10;;;;;;;14.11;32.14;100840.78;4913024;29;20091;-74
2021/04/16 10:07:19;;;;;;;72.78;32.40;;;;;;;14.48;32.28;100842.69;4935423;29;20062;-75
2021/04/16 10:09:45;;;;;;;9.93;4.93;;;;;;;14.67;36.67;100843.19;4951568;29;20059;-75
2021/04/16 10:12:27;;;;;;;17.45;8.82;;;;;;;14.90;34.25;100835.97;4959648;28;20422;-75
2021/04/16 10:14:53;;;;;;;30.02;15.73;;;;;;;15.13;33.46;100830.47;4989550;28;20408;-75
2021/04/16 10:17:23;;;;;;;6.10;3.65;;;;;;;15.37;32.59;100833.63;5042773;28;20485;-74
2021/04/16 10:20:14;;;;;;;6.03;3.50;;;;;;;15.27;31.58;100821.25;5047393;28;20036;-75
2021/04/16 10:22:40;;;;;;;7.28;3.25;;;;;;;15.46;30.93;100832.09;5050802;28;20039;-76
2021/04/16 12:39:20;;;;;;;6.35;3.17;;;;;;;16.84;27.04;100715.78;5033686;28;20044;-73
2021/04/16 12:41:56;;;;;;;6.80;3.05;;;;;;;16.00;27.65;100672.72;5034394;28;20034;-73
2021/04/16 12:44:48;;;;;;;5.28;3.20;;;;;;;16.93;25.80;100710.72;5016586;28;20060;-73
2021/04/16 12:47:31;;;;;;;5.78;3.17;;;;;;;17.26;26.89;100711.19;5034783;28;20032;-77
2021/04/16 12:50:04;;;;;;;6.93;3.70;;;;;;;17.40;25.88;100708.75;5034104;28;20025;-73
2021/04/16 12:52:29;;;;;;;6.90;3.70;;;;;;;16.91;28.71;100706.31;5034076;28;20033;-73
2021/04/16 12:54:55;;;;;;;7.43;3.90;;;;;;;17.42;27.15;100697.47;5033970;28;20032;-73
2021/04/16 12:57:27;;;;;;;6.25;3.17;;;;;;;17.52;28.01;100695.88;5034047;28;20021;-74
2021/04/16 12:59:53;;;;;;;6.10;3.78;;;;;;;16.59;27.07;100649.38;5033750;28;20518;-73
2021/04/16 13:02:28;;;;;;;7.30;3.65;;;;;;;16.20;26.62;100659.19;5033896;28;20021;-73
2021/04/16 13:05:00;;;;;;;5.57;3.13;;;;;;;16.89;26.17;100689.78;5016170;28;20022;-73
2021/04/16 13:07:26;;;;;;;43.90;21.23;;;;;;;17.19;26.76;100691.97;5033919;28;20053;-72
2021/04/16 13:09:53;;;;;;;9.80;4.95;;;;;;;17.28;27.33;100675.53;5033716;28;20123;-73
2021/04/16 13:12:19;;;;;;;7.20;3.80;;;;;;;17.29;26.97;100682.53;5035849;28;20049;-73
2021/04/16 13:14:45;;;;;;;4.90;3.50;;;;;;;17.66;25.97;100685.56;5033730;28;20127;-73
2021/04/16 13:17:14;;;;;;;6.93;3.58;;;;;;;17.53;25.84;100674.09;5033521;28;20515;-73
2021/04/16 13:19:43;;;;;;;5.97;3.50;;;;;;;17.62;25.77;100668.13;5015589;28;20128;-73
2021/04/16 13:22:11;;;;;;;5.75;3.72;;;;;;;17.81;25.84;100690.09;5033414;28;20018;-73
2021/04/16 13:24:37;;;;;;;7.47;3.60;;;;;;;17.71;25.75;100680.41;5033512;28;20029;-73
2021/04/16 13:27:07;;;;;;;5.72;3.25;;;;;;;17.76;26.16;100682.19;5033554;28;20029;-73
2021/04/16 13:29:33;;;;;;;6.10;3.53;;;;;;;17.11;26.72;100664.91;5033476;28;20052;-73
2021/04/16 13:32:00;;;;;;;5.05;3.17;;;;;;;16.76;26.70;100678.28;5033232;28;20483;-73
2021/04/16 13:34:25;;;;;;;6.28;3.47;;;;;;;16.58;27.30;100674.53;5033243;28;20032;-72
2021/04/16 13:36:51;;;;;;;7.32;3.42;;;;;;;16.79;28.09;100660.09;5033328;28;20112;-73
2021/04/16 13:39:18;;;;;;;5.55;3.00;;;;;;;17.09;27.51;100677.03;5033029;28;20030;-73
2021/04/16 13:41:44;;;;;;;3.90;3.05;;;;;;;17.16;26.58;100673.66;5033219;28;20404;-73
2021/04/16 13:44:09;;;;;;;6.32;3.53;;;;;;;17.12;26.94;100666.63;5015458;28;20041;-73
2021/04/16 13:46:38;;;;;;;6.18;3.40;;;;;;;17.23;30.10;100665.03;5033350;28;20064;-73
2021/04/16 13:49:10;;;;;;;6.90;3.35;;;;;;;17.14;27.06;100662.31;5032339;28;20491;-73
2021/04/16 13:51:36;;;;;;;4.53;3.03;;;;;;;17.23;28.09;100658.97;5032768;28;20136;-73
2021/04/16 13:54:06;;;;;;;6.93;3.38;;;;;;;17.29;28.24;100652.06;5033246;28;20029;-73
2021/04/16 13:56:32;;;;;;;;;;;;;;;17.19;27.39;100667.63;5033489;28;20021;-73
2021/04/16 13:58:57;;;;;;;6.72;2.90;;;;;;;17.19;26.88;100658.03;5014964;28;19913;-73